createdAt,value
2023-06-17T00:00:59.381Z,68.41
2023-06-17T00:03:16.376Z,69.30
2023-06-17T00:05:33.430Z,68.53
2023-06-17T00:07:50.319Z,69.04
2023-06-17T00:10:07.220Z,69.86
2023-06-17T00:12:24.182Z,69.37
2023-06-17T00:14:41.067Z,69.92
2023-06-17T00:16:57.960Z,69.75
2023-06-17T00:19:14.878Z,70.07
2023-06-17T00:21:31.766Z,70.65
2023-06-17T00:23:48.712Z,69.19
2023-06-17T00:26:05.641Z,70.89
2023-06-17T00:28:22.575Z,70.46
2023-06-17T00:30:39.490Z,70.67
2023-06-17T00:32:56.428Z,70.57
2023-06-17T00:35:13.796Z,70.68
2023-06-17T00:37:30.748Z,70.28
2023-06-17T00:39:47.655Z,70.57
2023-06-17T00:42:04.555Z,71.61
2023-06-17T00:44:21.448Z,70.34
2023-06-17T00:46:38.422Z,71.84
2023-06-17T00:48:55.383Z,70.84
2023-06-17T00:51:12.318Z,71.45
2023-06-17T00:53:29.220Z,70.83
2023-06-17T00:55:46.196Z,71.06
2023-06-17T00:58:03.094Z,71.61
2023-06-17T01:00:20.231Z,71.35
2023-06-17T01:02:37.967Z,72.41
2023-06-17T01:04:54.958Z,71.61
2023-06-17T01:07:11.921Z,71.71
2023-06-17T01:09:28.809Z,72.12
2023-06-17T01:11:45.701Z,72.13
2023-06-17T01:14:03.104Z,72.04
2023-06-17T01:16:20.034Z,71.61
2023-06-17T01:18:36.943Z,72.03
2023-06-17T01:20:53.835Z,72.02
2023-06-17T01:23:10.816Z,72.77
2023-06-17T01:25:27.751Z,72.98
2023-06-17T01:27:44.639Z,72.67
2023-06-17T01:30:01.516Z,73.09
2023-06-17T01:32:18.476Z,73.07
2023-06-17T01:34:35.405Z,73.16
2023-06-17T01:36:52.258Z,73.36
2023-06-17T01:39:09.187Z,73.24
2023-06-17T01:41:26.608Z,73.41
2023-06-17T01:43:43.543Z,73.82
2023-06-17T01:46:00.836Z,73.74
2023-06-17T01:48:17.787Z,73.87
2023-06-17T01:50:34.706Z,73.86
2023-06-17T01:52:51.614Z,74.03
2023-06-17T01:55:09.803Z,74.99
2023-06-17T01:57:26.722Z,74.72
2023-06-17T01:59:43.675Z,74.84
2023-06-17T02:02:00.569Z,74.79
2023-06-17T02:04:17.503Z,74.42
2023-06-17T02:06:34.942Z,74.29
2023-06-17T02:08:51.927Z,74.44
2023-06-17T02:11:08.819Z,74.85
2023-06-17T02:13:25.718Z,74.56
2023-06-17T02:15:42.607Z,74.40
2023-06-17T02:18:00.100Z,74.54
2023-06-17T02:20:17.089Z,74.49
2023-06-17T02:22:33.995Z,74.79
2023-06-17T02:24:50.894Z,75.14
2023-06-17T02:27:07.829Z,75.53
2023-06-17T02:29:25.199Z,75.42
2023-06-17T02:31:42.717Z,75.99
2023-06-17T02:34:00.203Z,75.89
2023-06-17T02:36:17.660Z,75.33
2023-06-17T02:38:34.617Z,75.25
2023-06-17T02:40:51.525Z,75.79
2023-06-17T02:43:08.439Z,76.39
2023-06-17T02:45:25.831Z,75.97
2023-06-17T02:47:43.169Z,75.33
2023-06-17T02:50:00.549Z,75.85
2023-06-17T02:52:17.860Z,76.01
2023-06-17T02:54:34.781Z,75.34
2023-06-17T02:56:51.672Z,76.72
2023-06-17T02:59:08.625Z,75.93
2023-06-17T03:01:25.647Z,76.63
2023-06-17T03:03:43.293Z,76.23
2023-06-17T03:06:00.213Z,76.70
2023-06-17T03:08:17.096Z,77.04
2023-06-17T03:10:33.986Z,77.06
2023-06-17T03:12:50.954Z,77.19
2023-06-17T03:15:08.360Z,76.89
2023-06-17T03:17:25.319Z,76.49
2023-06-17T03:19:42.229Z,77.04
2023-06-17T03:21:59.184Z,77.34
2023-06-17T03:24:16.133Z,76.98
2023-06-17T03:26:33.066Z,77.44
2023-06-17T03:28:49.975Z,77.00
2023-06-17T03:31:06.951Z,76.32
2023-06-17T03:33:23.877Z,77.41
2023-06-17T03:35:40.776Z,76.94
2023-06-17T03:37:57.633Z,76.31
2023-06-17T03:40:14.964Z,77.40
2023-06-17T03:42:31.903Z,77.50
2023-06-17T03:44:49.226Z,76.48
2023-06-17T03:47:06.124Z,77.10
2023-06-17T03:49:23.555Z,77.48
2023-06-17T03:51:40.905Z,77.29
2023-06-17T03:53:57.773Z,76.66
2023-06-17T03:56:14.731Z,77.92
2023-06-17T03:58:31.700Z,77.83
2023-06-17T04:00:48.598Z,77.50
2023-06-17T04:03:05.624Z,77.46
2023-06-17T04:05:23.589Z,77.28
2023-06-17T04:07:40.548Z,78.09
2023-06-17T04:10:06.291Z,78.04
2023-06-17T04:12:24.690Z,77.83
2023-06-17T04:14:41.636Z,77.76
2023-06-17T04:16:58.576Z,77.97
2023-06-17T04:19:15.555Z,77.89
2023-06-17T04:21:32.506Z,78.59
2023-06-17T04:23:49.481Z,78.81
2023-06-17T04:26:06.479Z,77.82
2023-06-17T04:28:23.387Z,78.94
2023-06-17T04:30:40.335Z,78.80
2023-06-17T04:32:57.798Z,78.25
2023-06-17T04:35:15.315Z,77.69
2023-06-17T04:37:32.189Z,77.83
2023-06-17T04:39:49.545Z,77.88
2023-06-17T04:42:06.434Z,78.17
2023-06-17T04:44:23.384Z,78.06
2023-06-17T04:46:40.302Z,77.97
2023-06-17T04:48:58.000Z,77.69
2023-06-17T04:51:14.924Z,78.12
2023-06-17T04:53:31.864Z,77.31
2023-06-17T04:55:48.774Z,77.83
2023-06-17T04:58:05.672Z,76.64
2023-06-17T05:00:22.831Z,76.85
2023-06-17T05:02:39.817Z,76.84
2023-06-17T05:04:56.740Z,76.72
2023-06-17T05:07:14.168Z,75.90
2023-06-17T05:09:31.084Z,74.65
2023-06-17T05:11:48.023Z,74.35
2023-06-17T05:14:04.884Z,73.08
2023-06-17T05:16:21.774Z,71.79
2023-06-17T05:18:38.732Z,71.23
2023-06-17T05:20:56.125Z,71.32
2023-06-17T05:23:13.016Z,72.79
2023-06-17T05:25:30.413Z,71.60
2023-06-17T05:27:47.326Z,72.86
2023-06-17T05:30:04.677Z,71.65
2023-06-17T05:32:21.649Z,72.14
2023-06-17T05:34:39.031Z,69.40
2023-06-17T05:36:56.421Z,69.23
2023-06-17T05:39:13.889Z,70.65
2023-06-17T05:41:30.793Z,70.37
2023-06-17T05:43:48.167Z,69.32
2023-06-17T05:46:05.094Z,70.51
2023-06-17T05:48:24.686Z,69.63
2023-06-17T05:50:43.202Z,68.78
2023-06-17T05:53:00.136Z,68.10
2023-06-17T05:55:17.554Z,67.55
2023-06-17T05:57:34.492Z,68.58
2023-06-17T05:59:51.387Z,66.46
2023-06-17T06:02:08.352Z,66.56
2023-06-17T06:04:25.282Z,67.05
2023-06-17T06:06:42.231Z,65.53
2023-06-17T06:08:59.151Z,66.58
2023-06-17T06:11:16.058Z,65.11
2023-06-17T06:13:32.949Z,65.50
2023-06-17T06:15:50.432Z,65.56
2023-06-17T06:18:08.208Z,65.97
2023-06-17T06:20:25.192Z,64.37
2023-06-17T06:22:42.098Z,64.51
2023-06-17T06:24:59.047Z,63.63
2023-06-17T06:27:15.941Z,64.17
2023-06-17T06:29:33.290Z,63.81
2023-06-17T06:31:50.167Z,63.05
2023-06-17T06:34:07.107Z,63.57
2023-06-17T06:36:24.078Z,62.54
2023-06-17T06:38:40.985Z,63.02
2023-06-17T06:40:57.857Z,62.13
2023-06-17T06:43:14.796Z,60.93
2023-06-17T06:45:31.747Z,62.02
2023-06-17T06:47:48.754Z,60.93
2023-06-17T06:50:07.249Z,60.42
2023-06-17T06:52:24.218Z,60.10
2023-06-17T06:54:41.142Z,59.82
2023-06-17T06:56:58.059Z,60.28
2023-06-17T06:59:14.953Z,60.28
2023-06-17T07:01:31.950Z,59.84
2023-06-17T07:03:48.856Z,60.57
2023-06-17T07:06:05.785Z,58.61
2023-06-17T07:08:23.385Z,57.64
2023-06-17T07:10:41.904Z,59.80
2023-06-17T07:12:59.486Z,57.63
2023-06-17T07:15:16.422Z,57.74
2023-06-17T07:17:33.376Z,57.89
2023-06-17T07:19:50.343Z,58.40
2023-06-17T07:22:07.843Z,57.84
2023-06-17T07:24:24.861Z,57.61
2023-06-17T07:26:41.906Z,57.17
2023-06-17T07:28:58.882Z,57.03
2023-06-17T07:31:15.811Z,57.02
2023-06-17T07:33:32.726Z,56.28
2023-06-17T07:35:49.644Z,57.12
2023-06-17T07:38:06.553Z,56.40
2023-06-17T07:40:23.645Z,55.14
2023-06-17T07:42:40.797Z,54.94
2023-06-17T07:44:57.735Z,54.00
2023-06-17T07:47:14.667Z,53.60
2023-06-17T07:49:31.594Z,53.69
2023-06-17T07:51:48.478Z,53.43
2023-06-17T07:54:05.404Z,52.71
2023-06-17T07:56:22.372Z,53.74
2023-06-17T07:58:39.282Z,51.48
2023-06-17T08:00:56.263Z,52.00
2023-06-17T08:03:13.324Z,51.15
2023-06-17T08:05:30.338Z,51.64
2023-06-17T08:07:47.231Z,47.25
2023-06-17T08:12:21.158Z,48.96
2023-06-17T08:14:38.090Z,47.69
2023-06-17T08:16:55.535Z,48.08
2023-06-17T08:19:12.450Z,47.04
2023-06-17T08:21:29.320Z,47.56
2023-06-17T08:23:46.258Z,47.87
2023-06-17T08:26:03.157Z,48.15
2023-06-17T08:28:20.520Z,42.60
2023-06-17T08:30:37.407Z,38.74
2023-06-17T08:32:54.836Z,38.35
2023-06-17T08:35:11.799Z,36.27
2023-06-17T08:37:28.732Z,35.14
2023-06-17T08:39:45.609Z,34.20
2023-06-17T08:42:02.535Z,34.30
2023-06-17T08:44:19.454Z,35.81
2023-06-17T08:46:36.346Z,33.76
2023-06-17T08:48:53.255Z,34.43
2023-06-17T08:51:10.732Z,33.93
2023-06-17T08:53:27.625Z,33.62
2023-06-17T08:55:44.548Z,34.05
2023-06-17T08:58:01.479Z,32.64
2023-06-17T09:00:18.676Z,33.99
2023-06-17T09:02:35.869Z,34.01
2023-06-17T09:04:52.927Z,32.15
2023-06-17T09:07:09.893Z,32.69
2023-06-17T09:09:26.837Z,32.37
2023-06-17T09:11:43.790Z,31.97
2023-06-17T09:14:00.795Z,32.68
2023-06-17T09:16:17.800Z,33.61
2023-06-17T09:18:34.782Z,33.64
2023-06-17T09:20:51.676Z,31.12
2023-06-17T09:23:08.585Z,30.61
2023-06-17T09:25:25.496Z,31.99
2023-06-17T09:27:42.458Z,31.08
2023-06-17T09:29:59.384Z,30.81
2023-06-17T09:32:16.295Z,31.33
2023-06-17T09:34:33.259Z,32.79
2023-06-17T09:36:50.163Z,31.84
2023-06-17T09:39:07.026Z,31.09
2023-06-17T09:41:23.932Z,31.10
2023-06-17T09:43:40.837Z,32.14
2023-06-17T09:45:57.782Z,32.12
2023-06-17T09:48:14.732Z,30.04
2023-06-17T09:50:31.677Z,30.72
2023-06-17T09:52:48.637Z,30.85
2023-06-17T09:55:05.553Z,31.58
2023-06-17T09:57:22.431Z,30.31
2023-06-17T09:59:39.373Z,31.77
2023-06-17T10:01:56.704Z,32.26
2023-06-17T10:04:13.719Z,31.23
2023-06-17T10:06:30.628Z,31.95
2023-06-17T10:08:47.516Z,31.63
2023-06-17T10:11:04.400Z,32.18
2023-06-17T10:13:21.300Z,31.54
2023-06-17T10:15:38.204Z,31.32
2023-06-17T10:17:55.168Z,31.81
2023-06-17T10:20:12.136Z,31.08
2023-06-17T10:22:29.077Z,31.09
2023-06-17T10:24:46.005Z,31.54
2023-06-17T10:29:20.784Z,29.88
2023-06-17T10:31:40.122Z,30.13
2023-06-17T10:34:07.476Z,29.47
2023-06-17T10:36:24.485Z,29.79
2023-06-17T10:38:41.444Z,30.29
2023-06-17T10:40:58.392Z,29.82
2023-06-17T10:43:15.290Z,29.41
2023-06-17T10:45:32.338Z,29.33
2023-06-17T10:47:49.363Z,29.94
2023-06-17T10:50:06.346Z,29.06
2023-06-17T10:52:23.248Z,29.17
2023-06-17T10:54:40.186Z,28.07
2023-06-17T10:56:57.121Z,28.44
2023-06-17T10:59:14.106Z,26.49
2023-06-17T11:01:31.025Z,27.81
2023-06-17T11:03:47.995Z,28.24
2023-06-17T11:06:04.991Z,28.53
2023-06-17T11:08:21.926Z,27.71
2023-06-17T11:10:38.909Z,26.32
2023-06-17T11:12:55.817Z,27.72
2023-06-17T11:15:12.732Z,26.22
2023-06-17T11:17:29.693Z,28.65
2023-06-17T11:19:46.631Z,27.79
2023-06-17T11:22:03.573Z,26.74
2023-06-17T11:24:20.506Z,26.86
2023-06-17T11:26:37.542Z,27.25
2023-06-17T11:28:54.448Z,26.12
2023-06-17T11:31:11.367Z,27.40
2023-06-17T11:33:28.416Z,26.77
2023-06-17T11:35:45.374Z,27.26
2023-06-17T11:38:02.271Z,27.38
2023-06-17T11:40:19.574Z,27.83
2023-06-17T11:42:36.795Z,26.51
2023-06-17T11:44:53.732Z,26.60
2023-06-17T11:47:10.886Z,26.88
2023-06-17T11:49:27.882Z,25.99
2023-06-17T11:51:44.801Z,26.36
2023-06-17T11:54:01.776Z,26.45
2023-06-17T11:56:18.681Z,27.40
2023-06-17T11:58:35.623Z,25.79
2023-06-17T12:00:52.562Z,26.75
2023-06-17T12:03:09.560Z,27.99
2023-06-17T12:05:26.489Z,26.48
2023-06-17T12:07:43.426Z,25.56
2023-06-17T12:10:00.397Z,26.20
2023-06-17T12:12:17.330Z,26.73
2023-06-17T12:14:34.203Z,27.24
2023-06-17T12:16:51.137Z,27.30
2023-06-17T12:19:08.037Z,25.36
2023-06-17T12:21:24.962Z,25.77
2023-06-17T12:23:42.047Z,25.41
2023-06-17T12:25:59.396Z,24.33
2023-06-17T12:28:16.258Z,24.54
2023-06-17T12:30:33.226Z,25.23
2023-06-17T12:32:50.188Z,24.46
2023-06-17T12:35:09.148Z,25.73
2023-06-17T12:37:26.185Z,24.45
2023-06-17T12:39:43.122Z,27.48
2023-06-17T12:42:00.048Z,26.56
2023-06-17T12:44:16.942Z,25.69
2023-06-17T12:46:33.868Z,26.17
2023-06-17T12:48:51.312Z,25.83
2023-06-17T12:51:10.201Z,25.60
2023-06-17T12:53:27.080Z,24.22
2023-06-17T12:55:43.968Z,25.80
2023-06-17T12:58:00.899Z,26.96
2023-06-17T13:00:17.854Z,25.65
2023-06-17T13:02:35.297Z,25.20
2023-06-17T13:04:52.272Z,24.07
2023-06-17T13:07:09.216Z,24.49
2023-06-17T13:09:26.130Z,23.97
2023-06-17T13:11:43.024Z,23.46
2023-06-17T13:13:59.953Z,24.86
2023-06-17T13:16:16.913Z,24.42
2023-06-17T13:18:33.819Z,24.69
2023-06-17T13:20:50.712Z,25.43
2023-06-17T13:23:07.599Z,24.35
2023-06-17T13:25:24.523Z,26.01
2023-06-17T13:27:41.554Z,24.03
2023-06-17T13:29:58.534Z,24.87
2023-06-17T13:32:17.694Z,24.84
2023-06-17T13:34:36.286Z,24.81
2023-06-17T13:36:53.206Z,23.75
2023-06-17T13:39:10.184Z,24.26
2023-06-17T13:41:27.124Z,24.07
2023-06-17T13:43:44.050Z,24.79
2023-06-17T13:46:00.999Z,24.41
2023-06-17T13:48:17.931Z,25.04
2023-06-17T13:50:37.164Z,24.58
2023-06-17T13:52:54.421Z,24.94
2023-06-17T13:55:11.338Z,25.42
2023-06-17T13:57:28.757Z,24.67
2023-06-17T13:59:45.656Z,25.36
2023-06-17T14:02:02.682Z,24.65
2023-06-17T14:04:20.175Z,24.12
2023-06-17T14:06:37.166Z,23.21
2023-06-17T14:08:54.057Z,23.69
2023-06-17T14:11:11.055Z,24.77
2023-06-17T14:13:27.910Z,24.94
2023-06-17T14:15:44.812Z,26.34
2023-06-17T14:18:01.802Z,25.55
2023-06-17T14:20:18.805Z,24.34
2023-06-17T14:22:36.188Z,25.28
2023-06-17T14:24:53.118Z,24.58
2023-06-17T14:27:10.053Z,23.92
2023-06-17T14:29:26.998Z,26.10
2023-06-17T14:31:44.410Z,24.89
2023-06-17T14:34:01.305Z,24.81
2023-06-17T14:36:18.266Z,24.57
2023-06-17T14:38:35.206Z,24.16
2023-06-17T14:40:52.098Z,25.33
2023-06-17T14:43:09.002Z,24.62
2023-06-17T14:45:25.935Z,24.21
2023-06-17T14:47:42.966Z,24.96
2023-06-17T14:49:59.989Z,24.41
2023-06-17T14:52:16.880Z,24.92
2023-06-17T14:54:33.829Z,25.22
2023-06-17T14:56:51.284Z,25.15
2023-06-17T14:59:08.686Z,25.46
2023-06-17T15:01:25.634Z,26.40
2023-06-17T15:03:42.676Z,25.49
2023-06-17T15:05:59.659Z,24.75
2023-06-17T15:08:16.605Z,25.03
2023-06-17T15:10:33.504Z,24.98
2023-06-17T15:12:50.399Z,25.29
2023-06-17T15:15:07.395Z,25.36
2023-06-17T15:17:24.329Z,25.05
2023-06-17T15:19:41.252Z,25.49
2023-06-17T15:21:58.190Z,25.37
2023-06-17T15:24:15.666Z,26.32
2023-06-17T15:26:32.654Z,27.02
2023-06-17T15:28:49.572Z,25.76
2023-06-17T15:31:06.488Z,26.01
2023-06-17T15:33:23.414Z,26.35
2023-06-17T15:35:40.357Z,25.91
2023-06-17T15:37:57.251Z,26.66
2023-06-17T15:40:14.222Z,26.68
2023-06-17T15:42:31.571Z,26.43
2023-06-17T15:44:48.520Z,26.36
2023-06-17T15:47:05.458Z,26.57
2023-06-17T15:49:22.772Z,27.28
2023-06-17T15:51:39.713Z,27.08
2023-06-17T15:53:56.662Z,27.45
2023-06-17T15:56:13.559Z,28.11
2023-06-17T15:58:30.442Z,26.89
2023-06-17T16:00:47.402Z,27.30
2023-06-17T16:03:04.331Z,28.25
2023-06-17T16:05:21.270Z,26.26
2023-06-17T16:07:38.189Z,27.79
2023-06-17T16:09:55.160Z,26.79
2023-06-17T16:12:12.113Z,27.26
2023-06-17T16:14:29.029Z,27.00
2023-06-17T16:16:45.925Z,27.60
2023-06-17T16:19:02.886Z,26.55
2023-06-17T16:21:19.806Z,26.68
2023-06-17T16:23:36.740Z,25.92
2023-06-17T16:25:56.024Z,26.87
2023-06-17T16:28:13.200Z,27.92
2023-06-17T16:30:30.098Z,26.80
2023-06-17T16:32:47.440Z,27.20
2023-06-17T16:35:04.404Z,27.52
2023-06-17T16:37:21.320Z,26.55
2023-06-17T16:39:38.263Z,27.33
2023-06-17T16:41:55.199Z,26.11
2023-06-17T16:44:12.079Z,26.84
2023-06-17T16:46:28.995Z,27.13
2023-06-17T16:48:45.882Z,28.23
2023-06-17T16:51:02.796Z,27.86
2023-06-17T16:53:20.101Z,28.54
2023-06-17T16:55:37.078Z,28.71
2023-06-17T16:57:53.956Z,31.55
2023-06-17T17:00:11.316Z,30.95
2023-06-17T17:02:28.365Z,31.33
2023-06-17T17:04:45.392Z,28.30
2023-06-17T17:07:02.325Z,29.76
2023-06-17T17:09:19.305Z,28.18
2023-06-17T17:11:36.315Z,28.03
2023-06-17T17:13:53.293Z,30.48
2023-06-17T17:16:10.247Z,30.80
2023-06-17T17:18:27.176Z,32.21
2023-06-17T17:20:44.096Z,33.83
2023-06-17T17:23:01.534Z,35.20
2023-06-17T17:25:18.454Z,36.39
2023-06-17T17:27:35.390Z,36.15
2023-06-17T17:29:52.294Z,36.19
2023-06-17T17:32:09.464Z,37.33
2023-06-17T17:34:26.396Z,36.26
2023-06-17T17:36:43.268Z,37.88
2023-06-17T17:39:00.339Z,37.79
2023-06-17T17:41:17.435Z,37.78
2023-06-17T17:43:34.333Z,38.67
2023-06-17T17:45:51.353Z,37.89
2023-06-17T17:48:08.432Z,38.30
2023-06-17T17:50:25.381Z,38.58
2023-06-17T17:52:42.281Z,39.52
2023-06-17T17:55:02.756Z,39.38
2023-06-17T17:57:20.492Z,40.08
2023-06-17T17:59:37.404Z,41.23
2023-06-17T18:01:54.763Z,40.86
2023-06-17T18:04:11.658Z,41.47
2023-06-17T18:06:28.565Z,40.41
2023-06-17T18:08:45.543Z,40.44
2023-06-17T18:11:02.490Z,41.02
2023-06-17T18:13:19.398Z,41.61
2023-06-17T18:15:36.381Z,42.38
2023-06-17T18:17:53.415Z,41.69
2023-06-17T18:20:10.481Z,42.57
2023-06-17T18:22:27.464Z,42.10
2023-06-17T18:24:44.781Z,42.91
2023-06-17T18:27:01.707Z,44.50
2023-06-17T18:29:18.602Z,44.23
2023-06-17T18:31:35.513Z,43.80
2023-06-17T18:33:52.421Z,44.30
2023-06-17T18:36:09.601Z,43.61
2023-06-17T18:38:26.525Z,43.77
2023-06-17T18:40:43.455Z,44.26
2023-06-17T18:43:00.395Z,44.97
2023-06-17T18:45:17.322Z,45.02
2023-06-17T18:47:34.257Z,46.67
2023-06-17T18:49:51.181Z,46.64
2023-06-17T18:52:08.092Z,47.28
2023-06-17T18:54:25.040Z,46.75
2023-06-17T18:56:41.960Z,46.39
2023-06-17T18:58:58.862Z,47.67
2023-06-17T19:01:15.854Z,47.87
2023-06-17T19:03:32.854Z,46.79
2023-06-17T19:05:49.784Z,47.79
2023-06-17T19:08:06.736Z,48.23
2023-06-17T19:10:24.157Z,49.05
2023-06-17T19:12:41.319Z,49.85
2023-06-17T19:14:58.279Z,50.28
2023-06-17T19:17:15.205Z,50.71
2023-06-17T19:19:32.141Z,49.97
2023-06-17T19:21:49.094Z,51.40
2023-06-17T19:24:06.032Z,51.52
2023-06-17T19:26:22.959Z,52.25
2023-06-17T19:28:39.903Z,52.43
2023-06-17T19:30:56.864Z,51.26
2023-06-17T19:33:14.031Z,52.22
2023-06-17T19:35:30.957Z,51.14
2023-06-17T19:37:48.908Z,50.97
2023-06-17T19:40:05.921Z,52.11
2023-06-17T19:42:23.331Z,52.79
2023-06-17T19:44:40.286Z,52.33
2023-06-17T19:46:58.297Z,52.82
2023-06-17T19:49:15.342Z,52.00
2023-06-17T19:51:32.272Z,51.68
2023-06-17T19:53:49.225Z,52.43
2023-06-17T19:56:06.186Z,52.19
2023-06-17T19:58:31.694Z,53.05
2023-06-17T20:00:48.682Z,53.17
2023-06-17T20:03:08.751Z,53.11
2023-06-17T20:05:25.733Z,54.18
2023-06-17T20:07:42.741Z,53.99
2023-06-17T20:09:59.693Z,54.00
2023-06-17T20:12:16.646Z,54.06
2023-06-17T20:14:33.805Z,54.42
2023-06-17T20:16:50.772Z,54.77
2023-06-17T20:19:08.701Z,55.01
2023-06-17T20:21:26.908Z,54.67
2023-06-17T20:23:43.850Z,54.89
2023-06-17T20:26:00.873Z,55.71
2023-06-17T20:28:18.199Z,55.65
2023-06-17T20:30:35.128Z,54.80
2023-06-17T20:32:52.078Z,56.25
2023-06-17T20:35:09.104Z,54.75
2023-06-17T20:37:26.265Z,54.25
2023-06-17T20:39:43.247Z,54.47
2023-06-17T20:42:00.252Z,56.39
2023-06-17T20:44:17.352Z,56.29
2023-06-17T20:46:34.554Z,55.74
2023-06-17T20:48:52.091Z,55.60
2023-06-17T20:51:09.041Z,56.78
2023-06-17T20:53:25.988Z,56.14
2023-06-17T20:55:42.915Z,56.31
2023-06-17T20:58:00.854Z,57.93
2023-06-17T21:00:17.799Z,56.17
2023-06-17T21:02:35.906Z,56.86
2023-06-17T21:04:52.910Z,57.69
2023-06-17T21:07:10.304Z,58.82
2023-06-17T21:09:29.727Z,56.70
2023-06-17T21:11:46.659Z,59.17
2023-06-17T21:14:03.598Z,57.93
2023-06-17T21:16:20.841Z,59.45
2023-06-17T21:18:37.807Z,59.98
2023-06-17T21:20:55.285Z,59.41
2023-06-17T21:23:12.243Z,59.45
2023-06-17T21:25:29.278Z,60.13
2023-06-17T21:27:46.211Z,58.26
2023-06-17T21:30:05.223Z,60.65
2023-06-17T21:32:22.600Z,59.21
2023-06-17T21:34:39.572Z,59.81
2023-06-17T21:36:58.517Z,59.60
2023-06-17T21:39:22.747Z,60.95
2023-06-17T21:41:39.638Z,61.00
2023-06-17T21:43:56.483Z,61.62
2023-06-17T21:46:14.780Z,60.78
2023-06-17T21:48:31.853Z,62.71
2023-06-17T21:50:49.843Z,61.99
2023-06-17T21:53:06.754Z,62.73
2023-06-17T21:55:23.630Z,62.30
2023-06-17T21:57:40.620Z,62.54
2023-06-17T21:59:57.623Z,63.24
2023-06-17T22:02:14.743Z,62.96
2023-06-17T22:04:31.789Z,63.13
2023-06-17T22:06:48.761Z,63.30
2023-06-17T22:09:06.132Z,63.73
2023-06-17T22:11:23.258Z,64.09
2023-06-17T22:13:40.203Z,64.05
2023-06-17T22:15:57.484Z,64.28
2023-06-17T22:18:14.455Z,64.00
2023-06-17T22:20:32.328Z,64.58
2023-06-17T22:22:49.518Z,64.70
2023-06-17T22:25:07.757Z,64.88
2023-06-17T22:27:25.921Z,65.46
2023-06-17T22:29:42.885Z,65.98
2023-06-17T22:32:00.316Z,65.31
2023-06-17T22:34:20.151Z,65.82
2023-06-17T22:36:37.082Z,65.92
2023-06-17T22:38:54.244Z,66.36
2023-06-17T22:41:13.244Z,66.61
2023-06-17T22:43:34.375Z,66.30
2023-06-17T22:45:51.336Z,66.65
2023-06-17T22:48:08.892Z,66.89
2023-06-17T22:50:28.118Z,67.77
2023-06-17T22:52:52.193Z,67.86
2023-06-17T22:55:09.200Z,67.38
2023-06-17T22:57:26.128Z,67.67
2023-06-17T22:59:43.095Z,68.34
2023-06-17T23:02:02.157Z,67.43
2023-06-17T23:04:19.738Z,68.59
2023-06-17T23:06:38.922Z,67.87
2023-06-17T23:08:56.372Z,68.21
2023-06-17T23:11:15.384Z,69.28
2023-06-17T23:13:33.350Z,69.64
2023-06-17T23:15:50.872Z,69.01
2023-06-17T23:18:09.883Z,68.30
2023-06-17T23:20:27.139Z,69.90
2023-06-17T23:22:46.310Z,70.33
2023-06-17T23:25:08.239Z,69.86
2023-06-17T23:27:25.517Z,70.24
2023-06-17T23:29:42.478Z,69.35
2023-06-17T23:31:59.430Z,69.11
2023-06-17T23:34:16.392Z,70.47
2023-06-17T23:36:35.413Z,69.88
2023-06-17T23:38:52.665Z,69.84
2023-06-17T23:41:09.696Z,68.73
2023-06-17T23:43:26.630Z,69.58
2023-06-17T23:45:43.581Z,69.38
2023-06-17T23:48:00.710Z,70.18
2023-06-17T23:50:17.715Z,69.95
2023-06-17T23:52:34.604Z,69.38
2023-06-17T23:54:52.736Z,69.54
2023-06-17T23:57:10.536Z,70.83
2023-06-17T23:59:27.461Z,72.03
